| Date | Temp | Humidity | Rainfall | Dew Point | Wind Direction | Wind Speed | Wind Pressure | Condition | Visibility |
|---|---|---|---|---|---|---|---|---|---|
| 2025-04-22 21:02:48 | 27 | 87 | 0.00 | 24 | 020 | 7.6 | 1012 | Showers | 10 km |
| 2025-04-22 20:02:01 | 29 | 78 | 0.00 | 25 | 250 | 3.8 | 1011 | Lightning | 10 km |
| 2025-04-22 18:01:14 | 29 | 77 | 0.00 | 24 | 290 | 7.6 | 1010 | Distant showers | 10 KM |
| 2025-04-22 17:03:24 | 30 | 76 | 0.00 | 25 | 300 | 17.1 | 1009 | Distant showers | 10 Km |
| 2025-04-22 16:02:29 | 30 | 74 | 0.00 | 25 | 270 | 15.2 | 1009 | Thunderstorm | 15 KM |
| 2025-04-22 13:59:26 | 30 | 70 | 0.00 | 24 | 280 | 1.9 | 1010 | Distant showers | 15 KM |
| 2025-04-22 12:59:17 | 31 | 64 | 23 | 240 | 13.3 | 1011 | Distant showers | 15 KM | |
| 2025-04-22 12:01:26 | 31 | 68 | 24 | 220 | 13.3 | 1012 | Partly Cloudy (Day) | 20 KM | |
| 2025-04-22 10:59:24 | 29 | 69 | 23 | 240 | 13.3 | 1013 | Partly Cloudy (Day) | 20 KM | |
| 2025-04-22 09:57:10 | 28 | 73 | 23 | 190 | 13.3 | 1013 | Partly Cloudy (Day) | 20 KM | |
| 2025-04-22 09:00:18 | 27 | 76 | 23 | 180 | 20.9 | 1013 | Partly Cloudy (Day) | 20 KM | |
| 2025-04-22 07:58:16 | 26 | 85 | 23 | 190 | 13.3 | 1013 | Partly Cloudy (Day) | 15KM | |
| 2025-04-22 06:57:55 | 24 | 93 | 23 | 190 | 11.4 | 1012 | Partly Cloudy (Day) | 10 km | |
| 2025-04-22 05:58:53 | 24 | 94 | 23 | 190 | 9.5 | 1012 | Partly Cloudy (Night) | 10 km | |
| 2025-04-22 05:00:54 | 24 | 94 | 23 | 200 | 13.3 | 10101 | Partly Cloudy (Night) | 10 KM | |
| 2025-04-22 03:58:31 | 24 | 96 | 24 | 200 | 15.2 | 96 | Rain | ||
| 2025-04-22 02:59:55 | 24 | 98 | 24 | 190 | 11.4 | 1011 | Rain | 10 KM | |
| 2025-04-22 02:09:21 | 24 | 98 | 0.00 | 24 | 190 | 9.5 | 1011 | Rain | 10KM |
| 2025-04-21 22:26:18 | 24 | 99 | 0.00 | 24 | 050 | 11.4 | 1012 | Thundershowers | 06KM |
| 2025-04-21 22:02:58 | 24 | 99 | 0.00 | 24 | 050 | 11.4 | 1012 | Thundershowers | 56 |
| 2025-04-21 21:00:16 | 26 | 93 | 0.00 | 25 | 030 | 28.5 | 1012 | Thundershowers | 6KM |
| 2025-04-21 19:58:46 | 28 | 89 | 0.00 | 26 | 280 | 5.7 | 1011 | Showers | 10KM |
| 2025-04-21 18:58:34 | 28 | 87 | 0.00 | 26 | 180 | 1.9 | 1010 | Lightning | 10KM |
| 2025-04-21 17:58:44 | 28 | 88 | 0.00 | 26 | 240 | 5.7 | 1009 | Partly Cloudy (Day) | 15KM |
| 2025-04-21 17:02:10 | 28 | 90 | 0.01 | 26 | 260 | 3.8 | 1008 | Shower Day | 10 KM |